Time;durP1;ratioP1;P1;durP2;ratioP2;P2;SDS_P1;SDS_P2;PMS_P1;PMS_P2;Temp;Humidity;BMP_temperature;BMP_pressure;BME280_temperature;BME280_humidity;BME280_pressure;Samples;Min_cycle;Max_cycle;Signal;HPM_P1;HPM_P2
2022/04/30 00:00:14;;;;;;;6.85;6.25;;;10.90;99.90;;;;;;6304370;22;20179;-69
2022/04/30 00:02:41;;;;;;;8.57;6.88;;;10.90;99.90;;;;;;6304645;22;20184;-68
2022/04/30 00:05:09;;;;;;;6.70;6.10;;;10.90;99.90;;;;;;6304659;22;20230;-69
2022/04/30 00:07:36;;;;;;;7.90;7.10;;;10.90;99.90;;;;;;6304625;22;20228;-69
2022/04/30 00:10:03;;;;;;;8.05;6.07;;;10.80;99.90;;;;;;6303932;22;20191;-69
2022/04/30 00:12:31;;;;;;;7.10;6.28;;;10.80;99.90;;;;;;6304903;22;20182;-68
2022/04/30 00:14:58;;;;;;;6.80;6.20;;;10.80;99.90;;;;;;6303971;22;20202;-69
2022/04/30 00:17:26;;;;;;;7.00;6.30;;;10.80;99.90;;;;;;6304455;22;20608;-69
2022/04/30 00:19:52;;;;;;;6.38;5.78;;;10.80;99.90;;;;;;6303594;22;20420;-68
2022/04/30 00:22:19;;;;;;;8.35;6.47;;;10.70;99.90;;;;;;6304904;22;20178;-69
2022/04/30 00:24:46;;;;;;;7.13;6.47;;;10.70;99.90;;;;;;6303944;22;20194;-69
2022/04/30 00:27:14;;;;;;;7.00;6.30;;;10.70;99.90;;;;;;6304268;22;20204;-69
2022/04/30 00:29:41;;;;;;;6.72;6.00;;;10.70;99.90;;;;;;6303703;22;20195;-69
2022/04/30 00:32:08;;;;;;;8.52;6.38;;;10.70;99.90;;;;;;6304777;22;20536;-68
2022/04/30 00:34:36;;;;;;;7.37;6.70;;;10.70;99.90;;;;;;6305027;22;20564;-69
2022/04/30 00:37:03;;;;;;;8.37;7.53;;;10.70;99.90;;;;;;6304078;22;20424;-69
2022/04/30 00:39:31;;;;;;;8.05;7.35;;;10.70;99.90;;;;;;6304224;22;20409;-69
2022/04/30 00:41:58;;;;;;;7.15;6.53;;;10.80;99.90;;;;;;6304549;22;20229;-69
2022/04/30 00:44:24;;;;;;;6.60;6.00;;;10.90;99.90;;;;;;6306769;22;20257;-69
2022/04/30 00:46:51;;;;;;;7.55;6.72;;;11.00;99.90;;;;;;6306314;22;20178;-69
2022/04/30 00:49:18;;;;;;;7.05;6.45;;;11.10;99.90;;;;;;6305781;22;20568;-68
2022/04/30 00:51:46;;;;;;;7.03;6.43;;;11.20;99.90;;;;;;6306036;22;20175;-68
2022/04/30 00:54:14;;;;;;;6.47;5.97;;;11.30;99.90;;;;;;6306515;22;20201;-69
2022/04/30 00:56:45;;;;;;;6.93;6.25;;;11.40;99.90;;;;;;6306490;22;20171;-69
2022/04/30 00:59:17;;;;;;;6.53;5.90;;;11.30;99.90;;;;;;6305549;22;20163;-69
2022/04/30 01:01:45;;;;;;;8.10;6.43;;;11.40;99.90;;;;;;6306023;22;20159;-68
2022/04/30 01:04:12;;;;;;;8.97;7.27;;;11.40;99.90;;;;;;6306081;22;20441;-69
2022/04/30 01:06:50;;;;;;;7.70;7.00;;;11.40;99.90;;;;;;6305985;22;20924;-68
2022/04/30 01:09:20;;;;;;;7.47;6.78;;;11.40;99.90;;;;;;6305354;22;20405;-69
2022/04/30 01:11:49;;;;;;;8.43;7.63;;;11.40;99.90;;;;;;6306320;22;20241;-69
2022/04/30 01:14:17;;;;;;;12.35;8.77;;;11.40;99.90;;;;;;6306092;22;20194;-68
2022/04/30 01:16:44;;;;;;;10.48;9.10;;;11.40;99.90;;;;;;6305742;22;20179;-69
2022/04/30 01:19:17;;;;;;;11.45;9.85;;;11.40;99.90;;;;;;6305541;22;20171;-69
2022/04/30 01:21:44;;;;;;;13.48;10.50;;;11.40;99.90;;;;;;6305658;22;20159;-69
2022/04/30 01:24:12;;;;;;;13.07;11.05;;;11.40;99.90;;;;;;6306510;22;20491;-68
2022/04/30 01:26:39;;;;;;;16.27;12.65;;;11.30;99.90;;;;;;6305983;22;20730;-69
2022/04/30 01:29:06;;;;;;;15.88;12.55;;;11.30;99.90;;;;;;6305265;22;20194;-69
2022/04/30 01:39:46;;;;;;;18.30;13.30;;;11.20;99.90;;;;;;6305559;22;20151;-69
2022/04/30 01:42:14;;;;;;;19.08;14.02;;;11.20;99.90;;;;;;6305608;22;20175;-69
2022/04/30 01:44:44;;;;;;;15.65;13.02;;;11.20;99.90;;;;;;6305878;22;20202;-69
2022/04/30 01:47:12;;;;;;;19.58;14.60;;;11.20;99.90;;;;;;6305925;22;20172;-69
2022/04/30 01:49:39;;;;;;;20.52;14.38;;;11.20;99.90;;;;;;6305025;22;20194;-69
2022/04/30 01:52:07;;;;;;;20.95;14.30;;;11.10;99.90;;;;;;6305509;22;20175;-69
2022/04/30 01:54:34;;;;;;;19.45;14.00;;;11.20;99.90;;;;;;6305208;22;20195;-69
2022/04/30 01:57:02;;;;;;;20.92;14.55;;;11.10;99.90;;;;;;6305687;22;20229;-69
2022/04/30 01:59:29;;;;;;;21.55;15.25;;;11.10;99.90;;;;;;6305180;22;20172;-69
2022/04/30 02:01:56;;;;;;;24.03;14.13;;;11.00;99.90;;;;;;6305472;22;20639;-69
2022/04/30 02:04:24;;;;;;;19.55;14.68;;;11.00;99.90;;;;;;6305628;22;20942;-68
2022/04/30 02:06:51;;;;;;;18.02;14.25;;;11.10;99.90;;;;;;6305092;22;20702;-69
2022/04/30 02:09:19;;;;;;;20.40;13.98;;;11.10;99.90;;;;;;6305219;22;20414;-68
2022/04/30 02:11:48;;;;;;;18.30;15.00;;;11.10;99.90;;;;;;6305183;22;20428;-91
2022/04/30 02:14:17;;;;;;;20.98;14.45;;;11.10;99.90;;;;;;6320353;22;20167;-92
2022/04/30 02:19:13;;;;;;;17.92;13.70;;;11.00;99.90;;;;;;6304866;22;20518;-71
2022/04/30 02:21:40;;;;;;;18.35;14.63;;;11.00;99.90;;;;;;6305761;22;20547;-71
2022/04/30 02:24:08;;;;;;;19.95;14.07;;;11.10;99.90;;;;;;6305500;22;20202;-70
2022/04/30 02:26:35;;;;;;;18.17;14.05;;;11.00;99.90;;;;;;6305799;22;20177;-70
2022/04/30 02:29:01;;;;;;;16.58;14.07;;;11.10;99.90;;;;;;6304961;22;20194;-71
2022/04/30 02:31:29;;;;;;;19.65;14.98;;;11.00;99.90;;;;;;6305550;22;20198;-70
2022/04/30 02:33:57;;;;;;;15.55;12.48;;;11.00;99.90;;;;;;6305123;22;20683;-71
2022/04/30 02:36:25;;;;;;;14.88;13.07;;;11.00;99.90;;;;;;6305147;22;20182;-71
2022/04/30 02:38:53;;;;;;;18.67;13.43;;;11.00;99.90;;;;;;6304908;22;20483;-70
2022/04/30 02:41:21;;;;;;;15.35;12.82;;;11.00;99.90;;;;;;6305463;22;20202;-70
2022/04/30 02:43:48;;;;;;;18.05;14.40;;;10.90;99.90;;;;;;6305382;22;20519;-71
2022/04/30 02:46:15;;;;;;;15.82;11.70;;;10.90;99.90;;;;;;6305350;22;20175;-71
2022/04/30 02:48:44;;;;;;;16.85;13.63;;;10.90;99.90;;;;;;6304395;22;20175;-71
2022/04/30 02:51:11;;;;;;;13.68;11.60;;;10.90;99.90;;;;;;6304953;22;20187;-71
2022/04/30 02:53:38;;;;;;;14.43;11.55;;;10.90;99.90;;;;;;6305531;22;20195;-71
2022/04/30 02:56:05;;;;;;;17.70;12.90;;;10.80;99.90;;;;;;6305520;22;20183;-71
2022/04/30 03:01:19;;;;;;;17.27;13.10;;;10.80;99.90;;;;;;6304956;22;20154;-70
2022/04/30 03:03:47;;;;;;;14.05;11.43;;;10.80;99.90;;;;;;6305419;22;20824;-70
2022/04/30 03:06:14;;;;;;;15.93;12.80;;;10.80;99.90;;;;;;6305029;22;20175;-70
2022/04/30 03:08:41;;;;;;;15.43;13.00;;;10.80;99.90;;;;;;6304555;22;20171;-71
2022/04/30 03:11:08;;;;;;;21.38;13.50;;;10.80;99.90;;;;;;6305017;22;20199;-71
2022/04/30 03:13:36;;;;;;;19.55;14.35;;;10.80;99.90;;;;;;6302396;22;20407;-71
2022/04/30 03:21:45;;;;;;;19.17;13.73;;;10.70;99.90;;;;;;6305076;22;20207;-71
2022/04/30 03:24:13;;;;;;;18.70;13.32;;;10.70;99.90;;;;;;6305367;22;20195;-71
2022/04/30 03:26:40;;;;;;;17.25;13.63;;;10.70;99.90;;;;;;6305220;22;20171;-71
2022/04/30 03:29:07;;;;;;;22.73;15.23;;;10.60;99.90;;;;;;6304269;22;20175;-70
2022/04/30 03:31:33;;;;;;;23.08;15.18;;;10.60;99.90;;;;;;6304723;22;20679;-71
2022/04/30 03:34:03;;;;;;;22.20;15.75;;;10.60;99.90;;;;;;6304429;22;20195;-71
2022/04/30 03:36:29;;;;;;;23.42;15.82;;;10.60;99.90;;;;;;6304943;22;20258;-71
2022/04/30 03:38:56;;;;;;;22.52;17.10;;;10.60;99.90;;;;;;6304496;22;20171;-70
2022/04/30 03:41:23;;;;;;;21.90;17.58;;;10.50;99.90;;;;;;6304650;22;20689;-71
2022/04/30 03:43:50;;;;;;;24.50;17.48;;;10.50;99.90;;;;;;6304887;22;20528;-71
2022/04/30 03:46:17;;;;;;;22.73;17.33;;;10.50;99.90;;;;;;6304859;22;20175;-71
2022/04/30 03:48:44;;;;;;;21.25;16.17;;;10.50;99.90;;;;;;6304213;22;20503;-71
2022/04/30 03:51:13;;;;;;;22.77;17.55;;;10.50;99.90;;;;;;6304652;22;20199;-71
2022/04/30 03:53:40;;;;;;;24.48;18.55;;;10.50;99.90;;;;;;6304921;22;20214;-71
2022/04/30 03:56:08;;;;;;;22.45;17.55;;;10.50;99.90;;;;;;6304795;22;20175;-71
2022/04/30 03:58:34;;;;;;;23.67;17.48;;;10.40;99.90;;;;;;6304268;22;20509;-71
2022/04/30 04:01:01;;;;;;;25.60;18.23;;;10.40;99.90;;;;;;6304745;22;20171;-71
2022/04/30 04:03:28;;;;;;;27.30;18.55;;;10.40;99.90;;;;;;6304655;22;20183;-71
2022/04/30 04:05:55;;;;;;;21.98;15.55;;;10.50;99.90;;;;;;6304754;22;20178;-70
2022/04/30 04:08:23;;;;;;;21.17;16.95;;;10.50;99.90;;;;;;6305332;22;20512;-71
2022/04/30 04:10:50;;;;;;;23.08;17.25;;;10.50;99.90;;;;;;6304568;22;20187;-71
2022/04/30 04:18:45;;;;;;;23.05;18.05;;;10.40;99.90;;;;;;6303427;22;20178;-71
2022/04/30 04:21:11;;;;;;;25.77;19.48;;;10.40;99.90;;;;;;6304622;22;20171;-71
2022/04/30 04:26:24;;;;;;;27.63;17.92;;;10.30;99.90;;;;;;6304513;22;20205;-71
2022/04/30 04:28:50;;;;;;;26.50;18.90;;;10.30;99.90;;;;;;6303755;22;20644;-71
2022/04/30 04:31:22;;;;;;;24.77;19.88;;;10.30;99.90;;;;;;6304509;22;20191;-71
2022/04/30 04:33:49;;;;;;;25.58;20.17;;;10.30;99.90;;;;;;6304694;22;20226;-71
2022/04/30 04:36:16;;;;;;;25.05;18.15;;;10.30;99.90;;;;;;6304632;22;20175;-71
2022/04/30 04:38:44;;;;;;;27.25;19.73;;;10.30;99.90;;;;;;6304225;22;20177;-71
2022/04/30 04:41:12;;;;;;;31.42;20.70;;;10.30;99.90;;;;;;6304640;22;20182;-71
2022/04/30 04:43:38;;;;;;;22.83;17.88;;;10.30;99.90;;;;;;6304672;22;20229;-71
2022/04/30 04:46:06;;;;;;;27.15;19.55;;;10.30;99.90;;;;;;6304790;22;20501;-70
2022/04/30 04:48:33;;;;;;;27.17;18.52;;;10.40;99.90;;;;;;6304428;22;20535;-71
2022/04/30 04:51:00;;;;;;;23.30;20.05;;;10.40;99.90;;;;;;6304401;22;20198;-71
2022/04/30 04:53:27;;;;;;;24.42;18.42;;;10.30;99.90;;;;;;6304352;22;20258;-71
2022/04/30 04:55:55;;;;;;;27.67;19.20;;;10.30;99.90;;;;;;6304430;22;20171;-71
2022/04/30 04:58:22;;;;;;;26.35;19.73;;;10.30;99.90;;;;;;6303583;22;20182;-71
2022/04/30 05:00:48;;;;;;;26.08;20.27;;;10.40;99.90;;;;;;6304036;22;20647;-71
2022/04/30 05:03:15;;;;;;;23.40;19.38;;;10.40;99.90;;;;;;6304686;22;20171;-71
2022/04/30 05:05:42;;;;;;;32.03;21.20;;;10.40;99.90;;;;;;6304602;22;20533;-71
2022/04/30 05:08:09;;;;;;;28.15;20.00;;;10.30;99.90;;;;;;6303735;22;20179;-71
2022/04/30 05:10:36;;;;;;;27.45;18.02;;;10.30;99.90;;;;;;6304698;22;20195;-71
2022/04/30 05:13:05;;;;;;;27.70;20.67;;;10.40;99.90;;;;;;6304782;22;20175;-71
2022/04/30 05:15:31;;;;;;;27.60;20.42;;;10.40;99.90;;;;;;6304254;22;20196;-71
2022/04/30 05:17:58;;;;;;;24.55;18.98;;;10.40;99.90;;;;;;6303983;22;20179;-71
2022/04/30 05:20:25;;;;;;;25.05;19.67;;;10.40;99.90;;;;;;6304543;22;20254;-71
2022/04/30 05:22:52;;;;;;;26.40;21.35;;;10.40;99.90;;;;;;6304155;22;20182;-71
2022/04/30 05:25:19;;;;;;;21.55;18.80;;;10.30;99.90;;;;;;6304025;22;20205;-71
2022/04/30 05:27:45;;;;;;;24.75;19.55;;;10.30;99.90;;;;;;6304456;22;20528;-71
2022/04/30 05:30:14;;;;;;;23.08;17.95;;;10.30;99.90;;;;;;6305039;22;20171;-71
2022/04/30 05:32:41;;;;;;;25.02;18.92;;;10.40;99.90;;;;;;6306496;22;20187;-71
2022/04/30 05:35:08;;;;;;;24.67;18.48;;;10.40;99.90;;;;;;6306319;22;20222;-71
2022/04/30 05:37:35;;;;;;;23.55;19.83;;;10.40;99.90;;;;;;6306132;22;20491;-70
2022/04/30 05:40:02;;;;;;;24.25;18.85;;;10.40;99.90;;;;;;6305558;22;20178;-71
2022/04/30 05:42:28;;;;;;;21.88;18.27;;;10.40;99.90;;;;;;6305513;22;20182;-71
2022/04/30 05:44:55;;;;;;;23.75;18.25;;;10.50;99.90;;;;;;6305763;22;20526;-71
2022/04/30 05:47:23;;;;;;;24.98;18.50;;;10.60;99.90;;;;;;6306061;22;20171;-71
2022/04/30 05:49:50;;;;;;;23.13;17.63;;;10.60;99.90;;;;;;6305458;22;20487;-72
2022/04/30 05:52:19;;;;;;;21.80;17.20;;;10.70;99.90;;;;;;6305713;22;20191;-72
2022/04/30 05:54:46;;;;;;;27.33;19.20;;;10.70;99.90;;;;;;6315821;22;20176;-72
2022/04/30 05:57:12;;;;;;;26.98;18.75;;;10.70;99.90;;;;;;6305415;22;20179;-71
2022/04/30 05:59:39;;;;;;;23.27;17.27;;;10.80;99.90;;;;;;6298955;22;20179;-72
2022/04/30 06:02:06;;;;;;;26.42;18.85;;;10.70;99.90;;;;;;6300484;22;20593;-71
2022/04/30 06:04:34;;;;;;;23.55;18.88;;;10.70;99.90;;;;;;6300316;22;20195;-72
2022/04/30 06:07:01;;;;;;;24.67;18.65;;;10.80;99.90;;;;;;6300571;22;20511;-72
2022/04/30 06:09:27;;;;;;;21.98;17.23;;;10.80;99.90;;;;;;6300288;22;20179;-71
2022/04/30 06:11:54;;;;;;;23.92;18.02;;;10.80;99.90;;;;;;6300828;22;20202;-72
2022/04/30 06:14:21;;;;;;;20.98;17.80;;;10.80;99.90;;;;;;6300423;22;20199;-72
2022/04/30 06:16:48;;;;;;;22.80;17.67;;;10.90;99.90;;;;;;6300836;22;20171;-71
2022/04/30 06:19:14;;;;;;;25.73;19.35;;;10.90;99.90;;;;;;6299617;22;20179;-72
2022/04/30 06:21:45;;;;;;;23.40;17.97;;;11.00;99.90;;;;;;6300885;22;20183;-72
2022/04/30 06:24:12;;;;;;;25.42;18.27;;;11.10;99.90;;;;;;6298687;22;20441;-72
2022/04/30 06:26:38;;;;;;;21.37;17.60;;;11.10;99.90;;;;;;6301656;22;20171;-71
2022/04/30 06:29:05;;;;;;;22.63;18.23;;;11.20;99.90;;;;;;6313119;22;20451;-70
2022/04/30 06:31:32;;;;;;;23.73;18.35;;;11.20;99.90;;;;;;6306091;22;20210;-71
2022/04/30 06:33:59;;;;;;;22.05;17.75;;;11.20;99.90;;;;;;6306104;22;20193;-71
2022/04/30 06:36:25;;;;;;;24.27;18.20;;;11.30;99.90;;;;;;6304789;22;20175;-71
2022/04/30 06:38:53;;;;;;;19.67;17.37;;;11.40;99.90;;;;;;6303144;22;20417;-70
2022/04/30 06:41:21;;;;;;;23.23;17.70;;;11.60;99.90;;;;;;6303943;22;20417;-72
2022/04/30 06:43:49;;;;;;;20.67;16.20;;;11.70;99.90;;;;;;6304089;22;20191;-71
2022/04/30 06:46:16;;;;;;;20.03;17.00;;;11.70;99.90;;;;;;6304025;22;21005;-72
2022/04/30 06:48:44;;;;;;;22.43;16.97;;;11.70;99.90;;;;;;6303157;22;20516;-71
2022/04/30 06:51:11;;;;;;;19.33;16.23;;;11.60;99.90;;;;;;6303822;22;20470;-72
2022/04/30 06:59:09;;;;;;;18.95;16.30;;;11.80;99.90;;;;;;6282408;22;20410;-73
2022/04/30 07:01:43;;;;;;;19.00;16.23;;;11.90;99.90;;;;;;6304080;22;20239;-71
2022/04/30 07:04:10;;;;;;;16.53;14.77;;;11.90;99.90;;;;;;6303190;22;21019;-72
2022/04/30 07:06:38;;;;;;;18.83;15.60;;;12.00;99.90;;;;;;6303797;22;20417;-71
2022/04/30 07:09:07;;;;;;;17.47;15.30;;;11.90;99.90;;;;;;6302925;22;20417;-72
2022/04/30 07:11:35;;;;;;;18.63;15.23;;;11.90;99.90;;;;;;6303425;22;20503;-73
2022/04/30 07:14:02;;;;;;;17.43;15.27;;;11.80;99.90;;;;;;6303437;22;20437;-71
2022/04/30 07:16:29;;;;;;;18.80;15.70;;;11.70;99.90;;;;;;6303812;22;20453;-72
2022/04/30 07:18:55;;;;;;;17.13;15.43;;;11.70;99.90;;;;;;6302287;22;20425;-72
2022/04/30 07:21:24;;;;;;;16.33;14.67;;;11.70;99.90;;;;;;6303463;22;20421;-72
2022/04/30 07:23:51;;;;;;;19.27;15.17;;;11.60;99.90;;;;;;6303706;22;21048;-71
2022/04/30 07:26:17;;;;;;;17.90;15.20;;;11.60;99.90;;;;;;6303489;22;20421;-72
2022/04/30 07:28:46;;;;;;;19.53;14.93;;;11.70;99.90;;;;;;6302784;22;20417;-72
2022/04/30 07:31:13;;;;;;;18.37;15.40;;;11.70;99.90;;;;;;6304005;22;20741;-72
2022/04/30 07:33:40;;;;;;;19.33;16.90;;;11.70;99.90;;;;;;6304789;22;20765;-71
2022/04/30 07:36:08;;;;;;;19.23;16.75;;;11.80;99.90;;;;;;6314603;22;20164;-71
2022/04/30 07:38:35;;;;;;;20.43;15.80;;;11.80;99.90;;;;;;6303446;22;20654;-71
2022/04/30 07:41:01;;;;;;;18.90;15.83;;;11.70;99.90;;;;;;6304415;22;20425;-70
2022/04/30 07:43:28;;;;;;;17.50;15.00;;;11.70;99.90;;;;;;6304706;22;20480;-71
2022/04/30 07:45:56;;;;;;;15.03;13.37;;;11.80;99.90;;;;;;6304350;22;20925;-70
2022/04/30 07:48:23;;;;;;;18.15;14.75;;;11.80;99.90;;;;;;6303581;22;20425;-71
2022/04/30 07:50:52;;;;;;;16.10;14.03;;;11.80;99.90;;;;;;6304739;22;20659;-71
2022/04/30 07:53:19;;;;;;;18.17;15.00;;;11.80;99.90;;;;;;6303458;22;20441;-70
2022/04/30 07:55:45;;;;;;;17.63;15.07;;;11.90;99.90;;;;;;6304307;22;20174;-73
2022/04/30 07:58:12;;;;;;;15.83;14.20;;;11.90;99.90;;;;;;6303653;22;20179;-72
2022/04/30 08:00:39;;;;;;;20.03;14.80;;;11.90;99.90;;;;;;6304294;22;20417;-72
2022/04/30 08:03:07;;;;;;;15.20;13.60;;;11.80;99.90;;;;;;6304367;22;20417;-72
2022/04/30 08:05:34;;;;;;;15.52;13.18;;;11.80;99.90;;;;;;6304094;22;20195;-72
2022/04/30 08:08:01;;;;;;;18.02;14.10;;;11.80;99.90;;;;;;6313710;22;20178;-73
2022/04/30 08:10:27;;;;;;;16.23;14.30;;;11.70;99.90;;;;;;6304741;22;20171;-72
2022/04/30 08:12:55;;;;;;;14.50;12.50;;;11.60;99.90;;;;;;6315469;22;20203;-94
2022/04/30 08:15:23;;;;;;;14.65;13.20;;;11.50;99.90;;;;;;6321687;22;20433;-95
2022/04/30 08:17:50;;;;;;;14.40;12.70;;;11.50;99.90;;;;;;6306938;22;20202;-70
2022/04/30 08:20:18;;;;;;;13.60;12.27;;;11.50;99.90;;;;;;6304320;22;20221;-70
2022/04/30 08:22:44;;;;;;;14.38;11.77;;;11.40;99.90;;;;;;6304379;22;20416;-71
2022/04/30 08:25:11;;;;;;;12.40;11.10;;;11.40;99.90;;;;;;6304168;22;20198;-70
2022/04/30 08:27:38;;;;;;;14.03;12.63;;;11.30;99.90;;;;;;6304791;22;20178;-70
2022/04/30 08:30:06;;;;;;;16.70;11.70;;;11.30;99.90;;;;;;6304165;22;20423;-70
2022/04/30 08:32:33;;;;;;;13.75;12.23;;;11.20;99.90;;;;;;6304711;22;20198;-70
2022/04/30 08:35:01;;;;;;;13.55;11.98;;;11.20;99.90;;;;;;6304330;22;20534;-70
2022/04/30 08:37:29;;;;;;;16.42;12.02;;;11.10;99.90;;;;;;6304790;22;20827;-70
2022/04/30 08:39:56;;;;;;;14.02;11.90;;;11.00;99.90;;;;;;6303364;22;20209;-70
2022/04/30 08:42:24;;;;;;;15.20;11.73;;;10.90;99.90;;;;;;6304874;22;20178;-70
2022/04/30 08:44:51;;;;;;;13.73;12.30;;;10.90;99.90;;;;;;6304056;22;20195;-70
2022/04/30 08:47:18;;;;;;;12.95;11.55;;;10.80;99.90;;;;;;6304286;22;20179;-70
2022/04/30 08:49:45;;;;;;;14.23;11.57;;;10.80;99.90;;;;;;6304267;22;20482;-70
2022/04/30 08:52:12;;;;;;;14.07;12.57;;;10.80;99.90;;;;;;6304369;22;20191;-70
2022/04/30 08:54:41;;;;;;;13.60;12.25;;;10.70;99.90;;;;;;6304160;22;20238;-70
2022/04/30 08:57:07;;;;;;;14.55;12.30;;;10.70;99.90;;;;;;6304283;22;20198;-70
2022/04/30 08:59:34;;;;;;;12.90;11.45;;;10.70;99.90;;;;;;6303820;22;20175;-70
2022/04/30 09:02:02;;;;;;;12.95;11.50;;;10.80;99.90;;;;;;6303928;22;20167;-70
2022/04/30 09:04:43;;;;;;;13.20;11.75;;;10.80;99.90;;;;;;6305807;22;20191;-69
2022/04/30 09:07:13;;;;;;;12.52;11.30;;;10.90;99.90;;;;;;6306056;22;20209;-70
2022/04/30 09:09:41;;;;;;;10.88;9.77;;;10.90;99.90;;;;;;6298987;22;20179;-70
2022/04/30 09:12:10;;;;;;;10.55;9.52;;;11.00;99.90;;;;;;6300314;22;20375;-70
2022/04/30 09:14:40;;;;;;;12.10;10.65;;;11.10;99.90;;;;;;6301232;22;20517;-70
2022/04/30 09:17:09;;;;;;;14.40;10.68;;;11.10;99.90;;;;;;6300781;22;20213;-69
2022/04/30 09:19:46;;;;;;;11.55;10.18;;;11.20;99.90;;;;;;6300570;22;20194;-70
2022/04/30 09:22:13;;;;;;;10.52;9.50;;;11.20;99.90;;;;;;6300434;22;20920;-69
2022/04/30 09:24:48;;;;;;;9.52;8.63;;;11.30;99.90;;;;;;6299790;22;20297;-69
2022/04/30 09:27:15;;;;;;;9.48;8.45;;;11.30;99.90;;;;;;6300912;22;20224;-70
2022/04/30 09:29:41;;;;;;;10.27;8.85;;;11.50;99.90;;;;;;6300451;22;20175;-70
2022/04/30 09:32:09;;;;;;;11.15;9.25;;;11.50;99.90;;;;;;6300425;22;20198;-69
2022/04/30 09:37:46;;;;;;;9.25;8.30;;;11.50;99.90;;;;;;6270896;22;20201;-69
2022/04/30 09:40:24;;;;;;;9.05;8.10;;;11.50;99.90;;;;;;6299840;22;20165;-69
2022/04/30 09:42:51;;;;;;;10.30;8.60;;;11.60;99.90;;;;;;6299788;22;20572;-70
2022/04/30 09:45:32;;;;;;;10.90;8.80;;;11.80;99.90;;;;;;6299649;22;20277;-69
2022/04/30 09:48:00;;;;;;;9.77;8.87;;;12.00;99.90;;;;;;6299204;22;20189;-69
2022/04/30 09:56:06;;;;;;;8.37;7.53;;;12.80;99.90;;;;;;6300333;22;20483;-69
2022/04/30 09:58:37;;;;;;;8.50;7.60;;;13.00;99.90;;;;;;6299708;22;20406;-69
2022/04/30 10:01:05;;;;;;;9.13;8.20;;;13.20;99.90;;;;;;6300156;22;20402;-69
2022/04/30 10:03:34;;;;;;;8.90;8.00;;;13.30;99.90;;;;;;6302246;22;20410;-69
2022/04/30 10:06:03;;;;;;;8.60;7.80;;;13.50;99.90;;;;;;6304143;22;20424;-69
2022/04/30 10:08:32;;;;;;;10.10;8.97;;;13.60;99.90;;;;;;6305989;22;20445;-69
2022/04/30 10:11:12;;;;;;;9.63;8.63;;;13.70;99.90;;;;;;6304982;22;20429;-69
2022/04/30 10:13:49;;;;;;;9.50;8.60;;;13.90;99.90;;;;;;6305595;22;20445;-69
2022/04/30 10:16:23;;;;;;;7.40;6.60;;;14.00;99.90;;;;;;6304708;22;20421;-69
2022/04/30 10:19:10;;;;;;;7.17;6.47;;;14.30;99.90;;;;;;6304205;22;20406;-70
2022/04/30 10:21:37;;;;;;;7.50;6.90;;;14.60;99.90;;;;;;6305278;22;20890;-70
2022/04/30 10:24:06;;;;;;;8.50;6.87;;;14.90;99.90;;;;;;6305080;22;20449;-70
2022/04/30 10:26:34;;;;;;;7.17;6.43;;;15.30;99.90;;;;;;6304439;22;20417;-70
2022/04/30 10:29:03;;;;;;;7.20;6.50;;;15.40;99.90;;;;;;6304415;22;20776;-70
2022/04/30 10:31:29;;;;;;;6.63;6.03;;;15.60;99.90;;;;;;6305147;22;20421;-70
2022/04/30 10:33:56;;;;;;;8.80;6.60;;;15.70;99.90;;;;;;6304335;22;20446;-70
2022/04/30 10:36:24;;;;;;;6.93;6.17;;;15.90;99.90;;;;;;6304905;22;20417;-70
2022/04/30 10:38:59;;;;;;;5.77;5.23;;;16.10;99.90;;;;;;6304084;22;20424;-70
2022/04/30 10:41:27;;;;;;;5.97;5.37;;;16.20;99.90;;;;;;6305044;22;20425;-70
2022/04/30 10:44:04;;;;;;;5.57;5.00;;;16.50;99.90;;;;;;6304779;22;20487;-70
2022/04/30 10:46:39;;;;;;;4.60;4.20;;;16.40;99.90;;;;;;6304581;22;20401;-69
2022/04/30 10:49:06;;;;;;;4.30;3.90;;;16.20;99.90;;;;;;6303901;22;20798;-70
2022/04/30 10:51:39;;;;;;;4.40;4.00;;;16.10;99.90;;;;;;6304414;22;20421;-70
2022/04/30 10:54:10;;;;;;;8.57;5.30;;;16.20;99.90;;;;;;6314679;22;20996;-70
2022/04/30 10:56:38;;;;;;;4.47;4.07;;;16.30;99.90;;;;;;6304431;22;20406;-70
2022/04/30 10:59:07;;;;;;;4.33;4.03;;;16.40;99.90;;;;;;6303890;22;20817;-70
2022/04/30 11:01:34;;;;;;;4.73;3.63;;;16.20;99.90;;;;;;6305049;22;20766;-70
2022/04/30 11:04:02;;;;;;;3.70;3.40;;;16.00;99.90;;;;;;6304418;22;20811;-70
2022/04/30 11:06:31;;;;;;;3.63;3.33;;;16.00;99.90;;;;;;6304278;22;20436;-70
2022/04/30 11:09:02;;;;;;;4.63;4.23;;;16.20;99.90;;;;;;6303645;22;20452;-70
2022/04/30 11:11:30;;;;;;;3.50;3.20;;;16.70;99.90;;;;;;6304584;22;20415;-70
2022/04/30 11:14:01;;;;;;;3.57;3.27;;;17.50;99.90;;;;;;6304087;22;20445;-70
2022/04/30 11:16:34;;;;;;;3.70;3.40;;;18.20;99.90;;;;;;6304347;22;20478;-70
2022/04/30 11:19:04;;;;;;;3.93;3.60;;;19.00;99.90;;;;;;6303840;22;20417;-70
2022/04/30 11:21:33;;;;;;;4.63;3.40;;;19.50;99.90;;;;;;6305994;22;20475;-70
2022/04/30 11:23:59;;;;;;;3.87;3.57;;;19.50;99.90;;;;;;6305762;22;20524;-70
2022/04/30 11:26:27;;;;;;;3.63;3.33;;;19.00;99.90;;;;;;6305586;22;20799;-70
2022/04/30 11:28:54;;;;;;;3.00;2.80;;;18.10;99.90;;;;;;6303747;22;20432;-70
2022/04/30 11:31:21;;;;;;;7.23;3.00;;;17.30;99.90;;;;;;6304640;22;20417;-70
2022/04/30 11:33:49;;;;;;;3.30;3.00;;;16.80;99.90;;;;;;6303699;22;20818;-69
2022/04/30 11:36:16;;;;;;;3.43;2.87;;;16.40;99.90;;;;;;6303974;22;20417;-70
2022/04/30 11:38:51;;;;;;;4.53;3.30;;;16.30;99.90;;;;;;6302757;22;20417;-70
2022/04/30 11:41:18;;;;;;;3.77;3.37;;;16.70;99.90;;;;;;6304504;22;20488;-70
2022/04/30 11:43:44;;;;;;;4.03;3.63;;;17.00;99.90;;;;;;6303970;22;20464;-70
2022/04/30 11:46:11;;;;;;;4.63;3.80;;;17.10;99.90;;;;;;6304663;22;20417;-71
2022/04/30 11:48:39;;;;;;;4.00;3.70;;;17.00;99.90;;;;;;6303657;22;20449;-70
2022/04/30 11:51:08;;;;;;;4.33;4.03;;;16.50;99.90;;;;;;6305089;22;20421;-70
2022/04/30 11:53:36;;;;;;;4.17;3.77;;;16.30;99.90;;;;;;6304185;22;20441;-70
2022/04/30 11:56:04;;;;;;;4.23;3.60;;;16.10;99.90;;;;;;6304218;22;20421;-70
2022/04/30 11:58:40;;;;;;;4.10;3.80;;;15.60;99.90;;;;;;6304071;22;20436;-70
2022/04/30 12:01:07;;;;;;;4.73;4.33;;;15.20;99.90;;;;;;6303840;22;21171;-71
2022/04/30 12:03:34;;;;;;;4.27;3.93;;;14.90;99.90;;;;;;6304395;22;20414;-70
2022/04/30 12:06:00;;;;;;;5.53;4.90;;;14.90;99.90;;;;;;6304021;22;20413;-71
2022/04/30 12:08:30;;;;;;;4.53;4.13;;;15.40;99.90;;;;;;6303889;22;20417;-70
2022/04/30 12:10:57;;;;;;;5.73;4.60;;;15.60;99.90;;;;;;6304237;22;20417;-70
2022/04/30 12:13:25;;;;;;;4.83;4.43;;;15.70;99.90;;;;;;6305035;22;20520;-70
2022/04/30 12:16:04;;;;;;;5.30;4.33;;;15.40;99.90;;;;;;6304498;22;20421;-70
2022/04/30 12:26:55;;;;;;;4.10;3.80;;;14.60;99.90;;;;;;6313575;22;20393;-70
2022/04/30 12:29:23;;;;;;;4.10;3.80;;;14.30;99.90;;;;;;6303653;22;20437;-71
2022/04/30 12:31:51;;;;;;;3.40;3.20;;;14.10;99.90;;;;;;6304096;22;20413;-71
2022/04/30 12:34:19;;;;;;;3.00;2.70;;;13.80;99.90;;;;;;6304081;22;20552;-69
2022/04/30 12:36:53;;;;;;;3.20;2.90;;;13.80;99.90;;;;;;6303920;22;20418;-70
2022/04/30 12:39:22;;;;;;;3.10;2.90;;;13.80;99.90;;;;;;6304601;22;20917;-69
2022/04/30 12:41:48;;;;;;;3.30;2.87;;;14.20;99.90;;;;;;6306132;22;20450;-70
2022/04/30 12:44:16;;;;;;;3.30;3.00;;;15.40;99.90;;;;;;6306168;22;20437;-70
2022/04/30 12:46:43;;;;;;;3.67;3.07;;;16.90;99.90;;;;;;6306976;22;20418;-71
2022/04/30 12:49:12;;;;;;;3.20;3.00;;;17.70;99.90;;;;;;6305550;22;20424;-70
2022/04/30 12:51:39;;;;;;;3.00;2.80;;;17.60;99.90;;;;;;6306728;22;20413;-72
2022/04/30 12:54:06;;;;;;;3.20;2.90;;;17.20;99.90;;;;;;6305339;22;20445;-71
2022/04/30 12:56:34;;;;;;;2.87;2.67;;;16.60;99.90;;;;;;6305656;22;20914;-71
2022/04/30 12:59:01;;;;;;;2.30;2.10;;;16.70;99.90;;;;;;6305553;22;20413;-72
2022/04/30 13:01:28;;;;;;;2.60;2.40;;;17.40;99.90;;;;;;6305779;22;20429;-71
2022/04/30 13:03:55;;;;;;;2.90;2.70;;;17.40;99.40;;;;;;6305505;22;20433;-71
2022/04/30 13:06:22;;;;;;;2.77;2.57;;;17.20;99.20;;;;;;6306063;22;20421;-70
2022/04/30 13:14:27;;;;;;;2.80;2.60;;;16.80;99.20;;;;;;6305934;22;20467;-71
2022/04/30 13:16:54;;;;;;;3.20;3.00;;;16.60;99.30;;;;;;6305680;22;20432;-71
2022/04/30 13:19:21;;;;;;;3.50;3.30;;;16.60;99.40;;;;;;6305095;22;20424;-71
2022/04/30 13:21:49;;;;;;;3.90;3.60;;;16.40;99.00;;;;;;6306103;22;20417;-70
2022/04/30 13:24:15;;;;;;;3.80;3.50;;;16.10;99.70;;;;;;6305557;22;20438;-70
2022/04/30 13:26:44;;;;;;;4.63;4.30;;;15.90;99.30;;;;;;6305811;22;20440;-70
2022/04/30 13:29:11;;;;;;;4.40;3.93;;;15.70;99.80;;;;;;6304837;22;20428;-70
2022/04/30 13:31:38;;;;;;;5.77;5.17;;;15.70;99.90;;;;;;6305965;22;20801;-70
2022/04/30 13:34:05;;;;;;;5.57;4.63;;;15.80;99.90;;;;;;6305859;22;20445;-70